Aérodrome :
LOGIN :

S'inscrire | Disclaimer

   EN    FR    IT 

 










Légende :    VFR   VFR Marginal   IFR   IFR Intensif   IFR Très Intensif
Visi : 
Plafond : 
>= 8 km
>= 3000ft
5 à 8 km
1000 à 3000 ft
1500m à 5 km
500 à 1000 ft
800 à 1500m
200 à 500 ft
< 800m
< 200 ft
Symboles :   Orages  Brouillard  Fortes neiges  Fortes précipitations  Vent > 20 kt
SIGMETs :   Divers  Orages  Givrage  Turbulence  Onde Orograph.  Cendres Volcan.






- Altitude de l'aérodrome : 397 ft
- Code IATA : IAS


LRIA - Iasi

DERNIER METAR :
  • 210300Z 07002KT CAVOK 09/02 Q1022

METARs EXPIRÉS :
  • 210230Z 12004KT CAVOK 11/M00 Q1022
  • 210200Z 11003KT CAVOK 12/01 Q1022
  • 210130Z VRB01KT CAVOK 10/00 Q1022
  • 210100Z 06002KT CAVOK 11/00 Q1022
  • 210030Z 18002KT CAVOK 11/01 Q1022

TAF TAF LRIA
Valide du 21 à 03h jusqu'au 21 à 12h UTC


210200Z 2103/2112 VRB04KT CAVOK



MET'MAP, la Météo Aéronautique d'un coup d'oeil ! - Copyright ORBIFLY Décembre 2007 - Disclaimer

ORBIFLY MET'MAP TEAM :

Programmation & Développement : Alexandra Zaïnal
Sur une idée originale de : Baudouin d'Aumeries
Assistance à la programmation : Marc-Olivier Méhu
Soutien technique & logistique : Manuel Goepfert

Contact : metmap@orbifly.com




SOURCES & CREDITS :

   NOAA